Industry, New York
Current Conditions -  °F | °C
As of 3:54 PM on Monday 22 Dec 2014 (Local Time) from KROC Reporting Station
Broken Clouds Broken Clouds  
Wind Chill: 32°   Ceiling: 25000
Heat Index: 38°   Visibility: 10mi
Dew Point: 26°   Wind: 8mph
Humidity: 62%   Direction: 160°SSE
Pressure: 30.11"   Gusts: NA
Location:  42.9942°N, 77.6714°W
Report Text: KROC 222054Z 16007KT 10SM SCT200 BKN250 03/M03 A3011 RMK AO2 SLP206 T00331033 55010
Loading
Personal Weather Stations






























Interactive Weather Map New forecast layout! Learn more

10-Day Weather Forecast

Advertisements
Track Severe Weather on mobile